Time;durP1;ratioP1;P1;durP2;ratioP2;P2;SDS_P1;SDS_P2;PMS_P1;PMS_P2;Temp;Humidity;BMP_temperature;BMP_pressure;BME280_temperature;BME280_humidity;BME280_pressure;Samples;Min_cycle;Max_cycle;Signal;HPM_P1;HPM_P2
2022/07/24 00:00:58;;;;;;;0.70;0.70;;;22.20;99.90;;;;;;5080582;28;20208;-80
2022/07/24 00:03:24;;;;;;;1.17;0.83;;;22.20;99.90;;;;;;5070861;28;20184;-80
2022/07/24 00:05:49;;;;;;;1.23;0.90;;;22.10;99.90;;;;;;5063607;28;20181;-80
2022/07/24 00:08:15;;;;;;;0.73;0.73;;;22.10;99.90;;;;;;5069693;28;20189;-80
2022/07/24 00:10:40;;;;;;;1.03;1.00;;;22.10;99.90;;;;;;5070743;28;20205;-80
2022/07/24 00:13:06;;;;;;;1.43;1.27;;;22.20;99.90;;;;;;5059507;28;20177;-80
2022/07/24 00:15:31;;;;;;;0.93;0.60;;;22.20;99.90;;;;;;5071561;28;20231;-80
2022/07/24 00:17:57;;;;;;;0.53;0.53;;;22.10;99.90;;;;;;5063465;28;20209;-80
2022/07/24 00:20:23;;;;;;;1.10;1.00;;;22.00;99.90;;;;;;5065766;28;20213;-80
2022/07/24 00:22:49;;;;;;;2.53;0.63;;;21.90;99.90;;;;;;5062053;28;20220;-81
2022/07/24 00:25:14;;;;;;;1.30;1.20;;;21.90;99.90;;;;;;5070716;28;20630;-80
2022/07/24 00:27:40;;;;;;;0.77;0.77;;;21.80;99.90;;;;;;5070969;28;20665;-80
2022/07/24 00:30:06;;;;;;;1.90;0.60;;;21.80;99.90;;;;;;5065322;28;20259;-80
2022/07/24 00:32:32;;;;;;;0.63;0.63;;;21.70;99.90;;;;;;5064926;28;20178;-80
2022/07/24 00:34:57;;;;;;;0.40;0.40;;;21.60;99.90;;;;;;5064090;28;20193;-80
2022/07/24 00:37:23;;;;;;;0.60;0.60;;;21.50;99.90;;;;;;5072705;28;20734;-80
2022/07/24 00:39:49;;;;;;;1.27;0.70;;;21.40;99.90;;;;;;5061987;28;20287;-80
2022/07/24 00:42:14;;;;;;;1.17;1.00;;;21.50;99.90;;;;;;5066966;28;20256;-80
2022/07/24 00:44:40;;;;;;;0.90;0.87;;;21.50;99.90;;;;;;5087489;28;20315;-80
2022/07/24 00:47:05;;;;;;;0.83;0.53;;;21.50;99.90;;;;;;5063465;28;20182;-80
2022/07/24 00:49:31;;;;;;;0.57;0.57;;;21.40;99.90;;;;;;5066603;28;20216;-80
2022/07/24 00:51:56;;;;;;;0.50;0.50;;;21.40;99.90;;;;;;5068736;28;20185;-80
2022/07/24 00:54:23;;;;;;;0.63;0.60;;;21.40;99.90;;;;;;5062718;28;20189;-80
2022/07/24 00:56:52;;;;;;;0.90;0.90;;;21.30;99.90;;;;;;5069104;28;20200;-80
2022/07/24 00:59:19;;;;;;;1.03;0.70;;;21.20;99.90;;;;;;5070800;28;20258;-80
2022/07/24 01:01:45;;;;;;;1.00;1.00;;;21.10;99.90;;;;;;5069074;28;20928;-80
2022/07/24 01:04:12;;;;;;;1.80;1.13;;;21.10;99.90;;;;;;5062874;28;20654;-80
2022/07/24 01:06:40;;;;;;;1.27;0.80;;;21.10;99.90;;;;;;5063393;28;20233;-80
2022/07/24 01:09:06;;;;;;;0.70;0.70;;;21.20;99.90;;;;;;5067504;28;20198;-80
2022/07/24 01:11:31;;;;;;;0.47;0.47;;;21.20;99.90;;;;;;5063302;28;20362;-80
2022/07/24 01:13:58;;;;;;;0.80;0.80;;;21.30;99.90;;;;;;5068983;28;20177;-80
2022/07/24 01:16:23;;;;;;;1.20;0.80;;;21.30;99.90;;;;;;5066017;28;20591;-80
2022/07/24 01:18:49;;;;;;;0.93;0.80;;;21.20;99.90;;;;;;5062129;28;20212;-80
2022/07/24 01:21:14;;;;;;;1.43;0.87;;;21.10;99.90;;;;;;5076584;28;20184;-80
2022/07/24 01:23:40;;;;;;;0.93;0.67;;;21.00;99.90;;;;;;5078028;28;20184;-80
2022/07/24 01:26:07;;;;;;;0.80;0.80;;;20.90;99.90;;;;;;5064890;28;20238;-80
2022/07/24 01:28:33;;;;;;;0.43;0.43;;;20.80;99.90;;;;;;5066588;28;20195;-80
2022/07/24 01:30:58;;;;;;;1.03;0.57;;;20.90;99.90;;;;;;5063829;28;20678;-80
2022/07/24 01:33:24;;;;;;;1.90;1.23;;;20.90;99.90;;;;;;5086829;28;20177;-80
2022/07/24 01:35:51;;;;;;;0.40;0.40;;;20.90;99.90;;;;;;5067783;28;20189;-80
2022/07/24 01:38:17;;;;;;;0.80;0.80;;;20.90;99.90;;;;;;5070683;28;20208;-80
2022/07/24 01:40:42;;;;;;;0.77;0.67;;;20.90;99.90;;;;;;5065547;28;20707;-80
2022/07/24 01:43:08;;;;;;;0.70;0.63;;;20.90;99.90;;;;;;5070050;28;20650;-80
2022/07/24 01:45:34;;;;;;;2.50;0.73;;;20.90;99.90;;;;;;5081739;28;20177;-80
2022/07/24 01:47:59;;;;;;;0.87;0.87;;;20.80;99.90;;;;;;5067693;28;20177;-80
2022/07/24 01:50:25;;;;;;;0.80;0.80;;;20.80;99.90;;;;;;5069922;28;20243;-80
2022/07/24 01:52:52;;;;;;;1.20;0.83;;;20.80;99.90;;;;;;5063156;28;20185;-80
2022/07/24 01:55:19;;;;;;;0.80;0.80;;;20.80;99.90;;;;;;5064935;28;20185;-80
2022/07/24 01:57:44;;;;;;;0.50;0.50;;;20.90;99.90;;;;;;5067195;28;20270;-80
2022/07/24 02:00:12;;;;;;;1.20;1.03;;;21.00;99.90;;;;;;5066527;28;20197;-80
2022/07/24 02:02:42;;;;;;;0.50;0.50;;;21.00;99.90;;;;;;5067066;28;20537;-80
2022/07/24 02:05:08;;;;;;;0.50;0.50;;;21.20;99.90;;;;;;5058361;28;20183;-80
2022/07/24 02:07:34;;;;;;;0.70;0.57;;;21.40;99.90;;;;;;5066710;28;20197;-80
2022/07/24 02:10:00;;;;;;;0.70;0.70;;;21.60;99.90;;;;;;5069592;28;20842;-80
2022/07/24 02:12:25;;;;;;;0.83;0.67;;;21.80;99.90;;;;;;5065160;28;20193;-80
2022/07/24 02:14:51;;;;;;;0.33;0.33;;;21.90;99.90;;;;;;5069222;28;20192;-80
2022/07/24 02:17:16;;;;;;;0.70;0.70;;;22.00;99.90;;;;;;5065385;28;20208;-80
2022/07/24 02:19:42;;;;;;;0.87;0.87;;;21.80;99.90;;;;;;5065372;28;20205;-80
2022/07/24 02:22:07;;;;;;;1.20;0.83;;;21.70;99.90;;;;;;5064725;28;20177;-80
2022/07/24 02:24:33;;;;;;;1.23;0.93;;;21.60;99.90;;;;;;5065556;28;20184;-81
2022/07/24 02:26:58;;;;;;;0.70;0.63;;;21.80;99.90;;;;;;5064138;28;20237;-80
2022/07/24 02:29:24;;;;;;;0.80;0.60;;;21.70;99.90;;;;;;5066056;28;20212;-80
2022/07/24 02:31:49;;;;;;;1.80;1.43;;;21.60;99.90;;;;;;5066582;28;20643;-81
2022/07/24 02:34:15;;;;;;;0.67;0.67;;;21.50;99.90;;;;;;5070565;28;20733;-80
2022/07/24 02:36:40;;;;;;;0.90;0.90;;;21.50;99.90;;;;;;5067259;28;20189;-80
2022/07/24 02:39:06;;;;;;;0.40;0.40;;;21.60;99.90;;;;;;5062525;28;20287;-80
2022/07/24 02:41:31;;;;;;;0.30;0.30;;;21.70;99.90;;;;;;5060246;28;20908;-81
2022/07/24 02:43:57;;;;;;;0.50;0.50;;;21.80;99.90;;;;;;5074800;28;20220;-80
2022/07/24 02:46:22;;;;;;;0.50;0.50;;;21.80;99.90;;;;;;5068170;28;20186;-80
2022/07/24 02:48:48;;;;;;;0.53;0.53;;;21.80;99.90;;;;;;5088259;28;20578;-80
2022/07/24 02:51:13;;;;;;;3.20;0.57;;;21.70;99.90;;;;;;5072917;28;20546;-80
2022/07/24 02:53:39;;;;;;;0.67;0.57;;;21.70;99.90;;;;;;5070077;28;20243;-80
2022/07/24 02:56:05;;;;;;;0.50;0.50;;;21.60;99.90;;;;;;5067373;28;20209;-80
2022/07/24 02:58:31;;;;;;;0.70;0.67;;;21.60;99.90;;;;;;5090412;28;20211;-80
2022/07/24 03:00:56;;;;;;;0.73;0.60;;;21.60;99.90;;;;;;5062071;28;20205;-80
2022/07/24 03:03:22;;;;;;;0.70;0.70;;;21.50;99.90;;;;;;5071466;28;20178;-80
2022/07/24 03:05:48;;;;;;;0.80;0.80;;;21.50;99.90;;;;;;5087887;28;20202;-80
2022/07/24 03:08:13;;;;;;;0.70;0.70;;;21.20;99.90;;;;;;5069821;28;20173;-80
2022/07/24 03:10:39;;;;;;;0.30;0.30;;;21.30;99.90;;;;;;5073643;28;20212;-80
2022/07/24 03:13:08;;;;;;;0.60;0.60;;;21.30;99.90;;;;;;5067148;28;20578;-81
2022/07/24 03:15:33;;;;;;;1.47;1.37;;;21.40;99.90;;;;;;5064699;28;20190;-80
2022/07/24 03:17:59;;;;;;;0.90;0.67;;;21.40;99.90;;;;;;5063408;28;20288;-80
2022/07/24 03:20:28;;;;;;;0.40;0.40;;;21.40;99.90;;;;;;5073025;28;20292;-80
2022/07/24 03:22:54;;;;;;;0.77;0.47;;;21.40;99.90;;;;;;5070116;28;20188;-80
2022/07/24 03:25:20;;;;;;;0.53;0.53;;;21.50;99.90;;;;;;5070108;28;20173;-80
2022/07/24 03:27:47;;;;;;;0.40;0.40;;;21.50;99.90;;;;;;5087848;28;20238;-81
2022/07/24 03:30:14;;;;;;;0.70;0.70;;;21.60;99.90;;;;;;5067583;28;20205;-80
2022/07/24 03:32:39;;;;;;;0.77;0.77;;;21.60;99.90;;;;;;5073546;28;20835;-80
2022/07/24 03:35:05;;;;;;;0.30;0.30;;;21.50;99.90;;;;;;5068345;28;20269;-80
2022/07/24 03:37:31;;;;;;;0.70;0.70;;;21.50;99.90;;;;;;5074114;28;20212;-80
2022/07/24 03:39:57;;;;;;;1.10;0.73;;;21.50;99.90;;;;;;5063430;28;20198;-80
2022/07/24 03:42:22;;;;;;;0.60;0.60;;;21.50;99.90;;;;;;5070448;28;20173;-80
2022/07/24 03:44:48;;;;;;;1.37;1.20;;;21.50;99.90;;;;;;5088494;28;20177;-80
2022/07/24 03:47:13;;;;;;;0.50;0.50;;;21.50;99.90;;;;;;5069128;28;20181;-80
2022/07/24 03:49:39;;;;;;;0.70;0.70;;;21.30;99.90;;;;;;5067246;28;20212;-79
2022/07/24 03:52:05;;;;;;;0.90;0.70;;;21.30;99.90;;;;;;5070981;28;20383;-80
2022/07/24 03:54:30;;;;;;;0.97;0.60;;;21.10;99.90;;;;;;5067824;28;20273;-80
2022/07/24 03:56:56;;;;;;;0.93;0.53;;;21.00;99.90;;;;;;5069042;28;20200;-80
2022/07/24 03:59:21;;;;;;;1.20;1.10;;;21.00;99.90;;;;;;5071824;28;20215;-80
2022/07/24 04:01:47;;;;;;;0.47;0.47;;;20.90;99.90;;;;;;5068219;28;20176;-80
2022/07/24 04:04:12;;;;;;;0.37;0.37;;;20.80;99.90;;;;;;5072050;28;20204;-80
2022/07/24 04:06:38;;;;;;;0.57;0.53;;;20.80;99.90;;;;;;5068231;28;20226;-80
2022/07/24 04:09:04;;;;;;;0.87;0.87;;;20.70;99.90;;;;;;5068733;28;20204;-80
2022/07/24 04:11:30;;;;;;;0.20;0.20;;;20.60;99.90;;;;;;5066171;28;20180;-80
2022/07/24 04:13:56;;;;;;;0.57;0.47;;;20.50;99.90;;;;;;5068749;28;20263;-80
2022/07/24 04:16:21;;;;;;;2.13;1.10;;;20.70;99.90;;;;;;5057403;28;20261;-80
2022/07/24 04:18:47;;;;;;;0.63;0.63;;;20.90;99.90;;;;;;5069241;28;20215;-80
2022/07/24 04:21:12;;;;;;;0.50;0.37;;;21.10;99.90;;;;;;5088401;28;20193;-80
2022/07/24 04:23:38;;;;;;;0.37;0.37;;;21.30;99.90;;;;;;5068648;28;20183;-80
2022/07/24 04:26:04;;;;;;;0.60;0.53;;;21.60;99.90;;;;;;5086182;28;20673;-80
2022/07/24 04:28:30;;;;;;;0.83;0.50;;;21.70;99.90;;;;;;5066095;28;20205;-80
2022/07/24 04:30:56;;;;;;;1.67;0.60;;;21.90;99.90;;;;;;5085040;28;20197;-80
2022/07/24 04:33:21;;;;;;;0.70;0.70;;;22.00;99.90;;;;;;5072224;28;20195;-80
2022/07/24 04:35:47;;;;;;;0.50;0.47;;;22.20;99.90;;;;;;5064494;28;20189;-80
2022/07/24 04:38:13;;;;;;;0.73;0.60;;;22.40;99.90;;;;;;5067059;28;20270;-81
2022/07/24 04:40:39;;;;;;;0.50;0.50;;;22.50;99.90;;;;;;5065155;28;20693;-80
2022/07/24 04:43:04;;;;;;;0.67;0.67;;;22.60;99.90;;;;;;5071302;28;20173;-80
2022/07/24 04:45:30;;;;;;;0.60;0.60;;;22.50;99.90;;;;;;5071944;28;20200;-80
2022/07/24 04:47:56;;;;;;;0.53;0.53;;;22.30;99.90;;;;;;5069342;28;20561;-80
2022/07/24 04:50:21;;;;;;;0.30;0.30;;;22.20;99.90;;;;;;5063963;28;20209;-80
2022/07/24 04:52:47;;;;;;;0.50;0.50;;;22.20;99.90;;;;;;5069220;28;20215;-80
2022/07/24 04:55:13;;;;;;;0.70;0.70;;;22.00;99.90;;;;;;5065898;28;20217;-80
2022/07/24 04:57:39;;;;;;;0.63;0.60;;;21.90;99.90;;;;;;5067902;28;20207;-80
2022/07/24 05:00:07;;;;;;;0.57;0.57;;;21.80;99.90;;;;;;5070682;28;20205;-80
2022/07/24 05:02:33;;;;;;;0.50;0.50;;;21.60;99.90;;;;;;5072352;28;20184;-80
2022/07/24 05:04:59;;;;;;;0.50;0.50;;;21.60;99.90;;;;;;5070323;28;20185;-80
2022/07/24 05:07:24;;;;;;;0.57;0.57;;;21.70;99.90;;;;;;5066132;28;20688;-80
2022/07/24 05:09:50;;;;;;;0.33;0.33;;;21.70;99.90;;;;;;5077195;28;20662;-80
2022/07/24 05:12:15;;;;;;;1.03;1.03;;;21.90;99.90;;;;;;5065355;28;20654;-80
2022/07/24 05:14:41;;;;;;;0.40;0.40;;;22.20;99.90;;;;;;5068404;28;20193;-80
2022/07/24 05:17:06;;;;;;;0.80;0.57;;;22.20;99.90;;;;;;5066106;28;20205;-80
2022/07/24 05:19:32;;;;;;;0.40;0.40;;;22.30;99.90;;;;;;5068103;28;20213;-80
2022/07/24 05:21:57;;;;;;;0.70;0.70;;;22.60;99.90;;;;;;5082704;28;20201;-80
2022/07/24 05:24:24;;;;;;;0.73;0.73;;;23.00;99.90;;;;;;5065272;28;20703;-80
2022/07/24 05:26:50;;;;;;;0.60;0.47;;;23.00;99.90;;;;;;5076823;28;20665;-80
2022/07/24 05:29:16;;;;;;;0.30;0.30;;;22.80;99.90;;;;;;5065078;28;20199;-80
2022/07/24 05:31:41;;;;;;;0.40;0.40;;;22.70;99.90;;;;;;5058888;28;20228;-80
2022/07/24 05:34:07;;;;;;;2.87;1.00;;;22.70;99.90;;;;;;5071766;28;20205;-80
2022/07/24 05:36:32;;;;;;;1.13;0.40;;;23.00;99.90;;;;;;5083149;28;20275;-80
2022/07/24 05:38:58;;;;;;;0.60;0.60;;;23.00;99.90;;;;;;5063325;28;20208;-80
2022/07/24 05:41:23;;;;;;;0.50;0.50;;;23.30;99.90;;;;;;5065669;28;20705;-80
2022/07/24 05:43:49;;;;;;;0.70;0.57;;;23.60;99.90;;;;;;5068281;28;20235;-80
2022/07/24 05:46:14;;;;;;;0.50;0.40;;;23.90;99.90;;;;;;5064810;28;20610;-80
2022/07/24 05:48:40;;;;;;;0.40;0.40;;;24.10;99.90;;;;;;5064418;28;20276;-81
2022/07/24 05:51:05;;;;;;;1.13;0.73;;;24.10;99.90;;;;;;5067188;28;20254;-82
2022/07/24 05:53:31;;;;;;;0.73;0.50;;;24.30;99.90;;;;;;5053684;28;20201;-80
2022/07/24 05:55:56;;;;;;;0.63;0.60;;;24.50;99.90;;;;;;5064924;28;20728;-81
2022/07/24 05:58:22;;;;;;;0.60;0.60;;;24.60;99.90;;;;;;5069570;28;20283;-80
2022/07/24 06:00:47;;;;;;;0.50;0.50;;;24.80;99.90;;;;;;5063155;28;20683;-81
2022/07/24 06:03:13;;;;;;;0.40;0.40;;;24.80;99.90;;;;;;5076698;28;20218;-80
2022/07/24 06:05:38;;;;;;;0.93;0.93;;;24.90;99.90;;;;;;5066783;28;20218;-81
2022/07/24 06:08:04;;;;;;;0.80;0.80;;;24.90;99.90;;;;;;5060845;28;20545;-80
2022/07/24 06:10:31;;;;;;;0.53;0.50;;;25.00;99.90;;;;;;5056018;28;20205;-80
2022/07/24 06:12:57;;;;;;;1.10;1.00;;;25.00;99.90;;;;;;5068266;28;20177;-80
2022/07/24 06:15:23;;;;;;;0.60;0.60;;;24.90;99.90;;;;;;5086394;28;20292;-80
2022/07/24 06:17:48;;;;;;;0.70;0.70;;;24.90;99.90;;;;;;5068138;28;20745;-81
2022/07/24 06:20:16;;;;;;;0.47;0.47;;;24.60;99.90;;;;;;5066600;28;20198;-80
2022/07/24 06:22:42;;;;;;;0.57;0.57;;;24.30;99.90;;;;;;5068268;28;20181;-80
2022/07/24 06:25:08;;;;;;;0.40;0.40;;;24.50;99.90;;;;;;5067419;28;20174;-81
2022/07/24 06:27:43;;;;;;;0.73;0.40;;;24.40;99.90;;;;;;5066957;28;20178;-81
2022/07/24 06:30:17;;;;;;;0.57;0.57;;;24.20;99.90;;;;;;5067843;28;20239;-81
2022/07/24 06:32:44;;;;;;;0.50;0.50;;;24.50;99.90;;;;;;5065966;28;20186;-81
2022/07/24 06:35:10;;;;;;;0.73;0.73;;;24.60;99.90;;;;;;5062781;28;20193;-81
2022/07/24 06:37:36;;;;;;;0.50;0.50;;;24.30;99.90;;;;;;5064177;28;20197;-80
2022/07/24 06:40:03;;;;;;;0.50;0.50;;;24.70;99.90;;;;;;5070230;28;20205;-81
2022/07/24 06:42:28;;;;;;;0.40;0.40;;;25.10;99.90;;;;;;5071540;28;20215;-81
2022/07/24 06:44:54;;;;;;;0.67;0.60;;;25.50;99.90;;;;;;5067625;28;20185;-81
2022/07/24 06:47:19;;;;;;;0.70;0.67;;;25.50;99.90;;;;;;5072484;28;20208;-81
2022/07/24 06:49:45;;;;;;;1.63;0.87;;;25.60;99.90;;;;;;5067360;28;20216;-81
2022/07/24 06:52:11;;;;;;;0.80;0.77;;;25.50;99.90;;;;;;5068242;28;20247;-80
2022/07/24 06:54:37;;;;;;;1.00;0.73;;;24.90;99.90;;;;;;5067234;28;20188;-81
2022/07/24 06:57:02;;;;;;;1.57;0.67;;;24.80;99.90;;;;;;5067175;28;20242;-81
2022/07/24 06:59:28;;;;;;;0.70;0.70;;;25.00;99.90;;;;;;5069502;28;20245;-80
2022/07/24 07:01:54;;;;;;;0.57;0.57;;;24.80;99.90;;;;;;5066497;28;20185;-81
2022/07/24 07:04:19;;;;;;;0.57;0.57;;;24.60;99.90;;;;;;5066012;28;20186;-81
2022/07/24 07:06:45;;;;;;;0.30;0.30;;;24.80;99.90;;;;;;5063157;28;20268;-81
2022/07/24 07:09:11;;;;;;;1.83;1.10;;;24.90;99.90;;;;;;5068177;28;20212;-80
2022/07/24 07:11:37;;;;;;;1.27;1.00;;;25.20;99.90;;;;;;5066178;28;20853;-80
2022/07/24 07:14:02;;;;;;;0.47;0.47;;;25.10;99.90;;;;;;5060310;28;20192;-81
2022/07/24 07:16:28;;;;;;;1.13;0.50;;;25.30;99.90;;;;;;5070223;28;20606;-80
2022/07/24 07:18:53;;;;;;;0.60;0.60;;;25.80;99.90;;;;;;5060859;28;20209;-80
2022/07/24 07:21:19;;;;;;;1.70;0.90;;;25.90;99.90;;;;;;5065013;28;20193;-81
2022/07/24 07:23:44;;;;;;;0.40;0.40;;;25.60;99.90;;;;;;5071384;28;20184;-79
2022/07/24 07:26:10;;;;;;;1.80;1.00;;;25.60;99.90;;;;;;5058502;28;20185;-80
2022/07/24 07:28:35;;;;;;;0.57;0.40;;;25.60;99.90;;;;;;5066000;28;20184;-81
2022/07/24 07:31:01;;;;;;;0.57;0.57;;;25.50;99.90;;;;;;5062626;28;20201;-81
2022/07/24 07:33:27;;;;;;;2.13;1.00;;;25.80;99.90;;;;;;5066150;28;20674;-81
2022/07/24 07:35:53;;;;;;;0.70;0.70;;;26.30;99.90;;;;;;5063733;28;20181;-81
2022/07/24 07:38:18;;;;;;;0.70;0.70;;;26.20;99.90;;;;;;5067017;28;20213;-80
2022/07/24 07:40:44;;;;;;;0.77;0.67;;;26.50;99.90;;;;;;5082040;28;20228;-80
2022/07/24 07:43:10;;;;;;;0.70;0.63;;;26.90;99.90;;;;;;5067823;28;20685;-80
2022/07/24 07:45:36;;;;;;;0.60;0.60;;;27.20;99.90;;;;;;5068440;28;20181;-80
2022/07/24 07:48:02;;;;;;;2.93;0.90;;;27.20;99.90;;;;;;5066743;28;20209;-79
2022/07/24 07:50:28;;;;;;;0.67;0.67;;;27.30;99.90;;;;;;5069030;28;20757;-80
2022/07/24 07:52:54;;;;;;;1.00;0.93;;;27.40;99.90;;;;;;5087197;28;20185;-81
2022/07/24 07:55:19;;;;;;;0.40;0.40;;;27.70;99.90;;;;;;5072709;28;20207;-81
2022/07/24 07:57:45;;;;;;;0.53;0.53;;;27.80;99.90;;;;;;5085152;28;20204;-81
2022/07/24 08:00:11;;;;;;;1.27;1.10;;;27.50;99.90;;;;;;5067551;28;20205;-82
2022/07/24 08:02:37;;;;;;;0.53;0.53;;;27.80;99.90;;;;;;5075456;28;20181;-82
2022/07/24 08:05:03;;;;;;;1.20;0.97;;;27.30;99.90;;;;;;5060071;28;20274;-81
2022/07/24 08:07:29;;;;;;;0.60;0.60;;;27.30;99.90;;;;;;5067896;28;20173;-81
2022/07/24 08:09:54;;;;;;;0.43;0.43;;;27.70;99.90;;;;;;5069581;28;20858;-80
2022/07/24 08:12:20;;;;;;;0.40;0.40;;;27.80;99.90;;;;;;5069641;28;20885;-80
2022/07/24 08:14:45;;;;;;;0.83;0.80;;;27.40;99.90;;;;;;5067310;28;20194;-80
2022/07/24 08:17:11;;;;;;;1.17;0.77;;;27.00;99.90;;;;;;5060880;28;20258;-80
2022/07/24 08:19:37;;;;;;;0.97;0.90;;;27.10;99.90;;;;;;5069031;28;20208;-80
2022/07/24 08:22:04;;;;;;;0.80;0.80;;;27.70;99.90;;;;;;5065029;28;20185;-80
2022/07/24 08:24:32;;;;;;;1.03;0.90;;;27.60;99.90;;;;;;5069377;28;20272;-80
2022/07/24 08:26:57;;;;;;;0.53;0.53;;;27.20;99.90;;;;;;5071013;28;20203;-80
2022/07/24 08:29:23;;;;;;;1.30;1.00;;;27.10;99.90;;;;;;5066725;28;20204;-80
2022/07/24 08:31:49;;;;;;;0.60;0.60;;;27.10;99.90;;;;;;5069329;28;20666;-80
2022/07/24 08:34:14;;;;;;;0.67;0.67;;;27.40;99.90;;;;;;5062695;28;20177;-80
2022/07/24 08:36:40;;;;;;;0.93;0.93;;;27.60;99.90;;;;;;5066905;28;20200;-80
2022/07/24 08:39:05;;;;;;;1.08;0.80;;;28.10;99.90;;;;;;5077548;28;20267;-80
2022/07/24 08:41:35;;;;;;;1.58;0.90;;;28.40;99.90;;;;;;5064222;28;20177;-80
2022/07/24 08:44:02;;;;;;;0.63;0.52;;;28.50;99.90;;;;;;5069265;28;20223;-80
2022/07/24 08:46:28;;;;;;;0.88;0.88;;;28.00;99.90;;;;;;5070430;28;20192;-80
2022/07/24 08:48:56;;;;;;;0.73;0.60;;;28.40;99.90;;;;;;5069077;28;20288;-80
2022/07/24 08:51:22;;;;;;;2.13;0.90;;;28.80;99.90;;;;;;5071497;28;20639;-80
2022/07/24 08:53:49;;;;;;;0.73;0.73;;;29.00;99.90;;;;;;5069176;28;20270;-80
2022/07/24 08:56:16;;;;;;;1.58;1.15;;;29.00;99.90;;;;;;5064893;28;20260;-80
2022/07/24 08:58:41;;;;;;;1.10;0.77;;;28.80;99.90;;;;;;5067059;28;20211;-80
2022/07/24 09:01:07;;;;;;;0.95;0.77;;;28.50;99.90;;;;;;5064582;28;20227;-80
2022/07/24 09:03:44;;;;;;;0.75;0.75;;;28.80;99.90;;;;;;5067374;28;20185;-80
2022/07/24 09:06:12;;;;;;;0.95;0.75;;;29.20;99.90;;;;;;5070032;28;20201;-80
2022/07/24 09:09:02;;;;;;;0.60;0.60;;;29.40;99.90;;;;;;5063250;28;20185;-81
2022/07/24 09:11:29;;;;;;;1.25;1.17;;;29.20;99.90;;;;;;5065194;28;20176;-80
2022/07/24 09:16:46;;;;;;;4.35;1.20;;;29.80;99.90;;;;;;5066941;28;20203;-80
2022/07/24 09:19:13;;;;;;;0.85;0.85;;;29.50;99.90;;;;;;5060198;28;20228;-81
2022/07/24 09:21:41;;;;;;;0.70;0.60;;;29.20;99.90;;;;;;5067087;28;20634;-81
2022/07/24 09:24:18;;;;;;;1.05;0.95;;;29.10;99.90;;;;;;5064298;28;20189;-80
2022/07/24 09:26:49;;;;;;;0.60;0.55;;;29.50;99.90;;;;;;5060808;28;20193;-80
2022/07/24 09:29:16;;;;;;;0.60;0.60;;;29.70;99.90;;;;;;5063645;28;20205;-80
2022/07/24 09:31:57;;;;;;;1.52;0.90;;;30.00;99.90;;;;;;5064223;28;20680;-80
2022/07/24 09:34:25;;;;;;;0.70;0.70;;;29.20;99.90;;;;;;5086595;28;20638;-80
2022/07/24 09:36:59;;;;;;;0.77;0.50;;;29.80;99.90;;;;;;5067603;28;20248;-81
2022/07/24 09:39:26;;;;;;;1.33;1.23;;;29.20;99.90;;;;;;5064348;28;20200;-80
2022/07/24 09:41:54;;;;;;;0.90;0.90;;;29.60;99.90;;;;;;5067001;28;20294;-81
2022/07/24 09:44:20;;;;;;;0.95;0.95;;;29.70;99.90;;;;;;5062594;28;20173;-80
2022/07/24 09:46:56;;;;;;;1.08;1.00;;;29.10;99.90;;;;;;5061198;28;20677;-81
2022/07/24 09:49:23;;;;;;;0.80;0.80;;;28.90;99.90;;;;;;5064529;28;20274;-81
2022/07/24 09:52:15;;;;;;;1.25;0.95;;;28.90;99.90;;;;;;5087739;28;20242;-81
2022/07/24 09:54:47;;;;;;;0.45;0.45;;;29.30;99.90;;;;;;5071509;28;20181;-81
2022/07/24 09:57:21;;;;;;;2.47;1.52;;;29.90;99.90;;;;;;5068300;28;20201;-80
2022/07/24 09:59:50;;;;;;;1.20;1.20;;;29.70;99.90;;;;;;5071449;28;20231;-81
2022/07/24 10:02:18;;;;;;;1.42;0.93;;;29.90;99.90;;;;;;5071144;28;20200;-80
2022/07/24 10:04:45;;;;;;;1.00;0.98;;;30.10;99.90;;;;;;5066541;28;20187;-80
2022/07/24 10:07:13;;;;;;;0.90;0.85;;;30.60;99.90;;;;;;5069724;28;20238;-81
2022/07/24 10:09:44;;;;;;;1.05;0.77;;;29.60;99.90;;;;;;5083552;28;20274;-80
2022/07/24 10:12:15;;;;;;;1.42;1.30;;;29.80;99.90;;;;;;5063552;28;20659;-80
2022/07/24 10:14:43;;;;;;;1.38;1.02;;;30.30;99.90;;;;;;5069013;28;20284;-80
2022/07/24 10:17:11;;;;;;;0.82;0.60;;;30.70;99.90;;;;;;5065879;28;20192;-80
2022/07/24 10:19:48;;;;;;;1.40;0.90;;;31.00;99.90;;;;;;5070849;28;20193;-80
2022/07/24 10:22:21;;;;;;;0.85;0.82;;;31.10;99.90;;;;;;5071593;28;20770;-80
2022/07/24 10:25:00;;;;;;;0.60;0.60;;;31.30;99.90;;;;;;5067462;28;20673;-80
2022/07/24 10:27:35;;;;;;;0.80;0.80;;;31.50;99.90;;;;;;5065098;28;20646;-80
2022/07/24 10:30:07;;;;;;;1.00;0.93;;;31.60;99.90;;;;;;5088221;28;20208;-81
2022/07/24 10:32:34;;;;;;;0.70;0.70;;;31.40;99.90;;;;;;5070259;28;20236;-80
2022/07/24 10:35:19;;;;;;;0.75;0.75;;;31.60;99.90;;;;;;5067725;28;20187;-81
2022/07/24 10:38:14;;;;;;;0.90;0.90;;;31.60;99.90;;;;;;5067663;28;20292;-80
2022/07/24 10:40:51;;;;;;;1.13;0.85;;;31.60;99.90;;;;;;5072627;28;20233;-80
2022/07/24 10:43:18;;;;;;;1.13;1.02;;;31.70;99.90;;;;;;5066242;28;20218;-80
2022/07/24 10:45:53;;;;;;;0.50;0.50;;;31.80;99.90;;;;;;5071145;28;20280;-80
2022/07/24 10:48:25;;;;;;;1.10;1.08;;;32.20;99.90;;;;;;5067897;28;20213;-80
2022/07/24 10:51:08;;;;;;;1.00;0.90;;;32.40;99.90;;;;;;5072627;28;20197;-80
2022/07/24 10:53:37;;;;;;;0.47;0.47;;;32.50;99.90;;;;;;5085098;28;20185;-80
2022/07/24 10:56:22;;;;;;;1.40;1.27;;;32.60;99.90;;;;;;5066254;28;20181;-80
2022/07/24 10:59:01;;;;;;;0.95;0.95;;;32.30;99.90;;;;;;5073335;28;20208;-80
2022/07/24 11:01:29;;;;;;;1.00;1.00;;;32.40;99.90;;;;;;5065760;28;20185;-80
2022/07/24 11:03:54;;;;;;;1.35;1.17;;;32.50;99.90;;;;;;5073157;28;20189;-80
2022/07/24 11:06:39;;;;;;;1.27;1.17;;;32.50;99.90;;;;;;5067780;28;20181;-80
2022/07/24 11:09:04;;;;;;;0.73;0.73;;;32.40;99.90;;;;;;5067494;28;20208;-80
2022/07/24 11:11:30;;;;;;;1.88;1.00;;;32.50;99.90;;;;;;5071746;28;20183;-80
2022/07/24 11:14:01;;;;;;;1.13;1.02;;;32.70;99.90;;;;;;5070567;28;20194;-81
2022/07/24 11:16:32;;;;;;;0.93;0.77;;;32.90;99.90;;;;;;5067853;28;20177;-80
2022/07/24 11:19:01;;;;;;;0.73;0.73;;;33.00;99.90;;;;;;5071260;28;20199;-81
2022/07/24 11:21:37;;;;;;;1.73;0.98;;;32.50;99.90;;;;;;5067092;28;20617;-80
2022/07/24 11:24:16;;;;;;;1.92;0.88;;;32.60;99.90;;;;;;5074145;28;20255;-80
2022/07/24 11:26:49;;;;;;;1.27;0.98;;;32.60;99.90;;;;;;5079270;28;20193;-80
2022/07/24 11:29:19;;;;;;;0.88;0.85;;;32.60;99.90;;;;;;5072280;28;20219;-80
2022/07/24 11:31:48;;;;;;;1.73;1.00;;;32.80;99.90;;;;;;5068391;28;20189;-80
2022/07/24 11:34:14;;;;;;;1.20;1.10;;;31.90;99.90;;;;;;5066624;28;20178;-80
2022/07/24 11:36:42;;;;;;;0.93;0.93;;;32.00;99.90;;;;;;5072462;28;20184;-80
2022/07/24 11:39:08;;;;;;;1.40;1.00;;;32.40;99.90;;;;;;5068442;28;20259;-80
2022/07/24 11:41:45;;;;;;;2.50;1.40;;;32.50;99.90;;;;;;5072017;28;20173;-81
2022/07/24 11:44:12;;;;;;;0.88;0.88;;;32.70;99.90;;;;;;5062885;28;20188;-80
2022/07/24 11:46:39;;;;;;;1.25;1.15;;;32.70;99.90;;;;;;5063848;28;20177;-81
2022/07/24 11:49:06;;;;;;;0.98;0.98;;;32.90;99.90;;;;;;5065582;28;20236;-80
2022/07/24 11:51:40;;;;;;;1.77;1.00;;;32.70;99.90;;;;;;5070611;28;20264;-80
2022/07/24 11:54:05;;;;;;;0.80;0.80;;;31.90;99.90;;;;;;5072996;28;20272;-80
2022/07/24 11:56:32;;;;;;;1.08;0.98;;;31.70;99.90;;;;;;5072231;28;20212;-80
2022/07/24 11:58:58;;;;;;;1.15;1.15;;;32.30;99.90;;;;;;5087936;28;20205;-80
2022/07/24 12:01:23;;;;;;;1.27;1.17;;;32.50;99.90;;;;;;5067884;28;20181;-80
2022/07/24 12:03:53;;;;;;;1.83;1.13;;;32.00;99.90;;;;;;5070873;28;20278;-80
2022/07/24 12:06:20;;;;;;;0.77;0.63;;;32.00;99.90;;;;;;5070291;28;20274;-80
2022/07/24 12:08:45;;;;;;;0.77;0.77;;;32.40;99.90;;;;;;5070456;28;20522;-81
2022/07/24 12:11:11;;;;;;;0.63;0.63;;;32.30;99.90;;;;;;5070971;28;20302;-80
2022/07/24 12:13:41;;;;;;;1.00;1.00;;;32.20;99.90;;;;;;5078203;28;20201;-80
2022/07/24 12:16:07;;;;;;;1.88;1.52;;;32.60;99.90;;;;;;5070832;28;20182;-80
2022/07/24 12:18:33;;;;;;;1.45;0.85;;;32.90;99.90;;;;;;5067257;28;20279;-80
2022/07/24 12:21:00;;;;;;;0.75;0.75;;;32.90;99.90;;;;;;5062251;28;20746;-80
2022/07/24 12:23:28;;;;;;;0.75;0.75;;;33.00;99.90;;;;;;5070027;28;20187;-80
2022/07/24 12:25:55;;;;;;;0.85;0.85;;;33.10;99.90;;;;;;5068029;28;20186;-80
2022/07/24 12:28:20;;;;;;;0.85;0.85;;;33.30;99.90;;;;;;5068631;28;20190;-80
2022/07/24 12:30:48;;;;;;;0.60;0.60;;;33.40;99.90;;;;;;5070651;28;20212;-80
2022/07/24 12:33:14;;;;;;;0.93;0.85;;;33.60;99.90;;;;;;5071478;28;20217;-80
2022/07/24 12:36:11;;;;;;;1.20;1.15;;;33.30;99.90;;;;;;5070622;28;20219;-80
2022/07/24 12:38:51;;;;;;;1.20;1.00;;;33.20;99.90;;;;;;5065746;28;20209;-80
2022/07/24 12:41:19;;;;;;;1.08;0.90;;;33.10;99.90;;;;;;5065197;28;20208;-80
2022/07/24 12:43:54;;;;;;;0.63;0.63;;;32.80;99.90;;;;;;5067095;28;20235;-80
2022/07/24 12:46:40;;;;;;;1.67;1.40;;;32.40;99.90;;;;;;5083246;28;20207;-81
2022/07/24 12:49:11;;;;;;;1.27;1.17;;;32.60;99.90;;;;;;5069410;28;20216;-80
2022/07/24 12:51:51;;;;;;;1.33;1.23;;;33.00;99.90;;;;;;5068142;28;20658;-80